Meteo Giornale » Osservazioni meteo Stati Uniti (USA) » Custer
ore: 11:53 - Osservazioni Meteo Custer
Lat. 43° 43' N Lon. 103° 36' W Alt. 1711 metri s.l.m.
23 °C
Sereno
Temp. 24 Ore
7 °C
26 °C
Sud/Sud-Ovest
13 Km/h
Dew point 1 °C
Umidità 23 %
Visibilità 10 Km
Il sole sorge alle ore 06:17
Il sole tramonta alle ore 19:31
| Data e Ora | Cielo e Fenomeni | T °C | DP °C | Um. % | Pres. hPa | Vis. km | Vento km/h | |
|---|---|---|---|---|---|---|---|---|
| Oggi h: 11:53 | Sereno | 23 | 1 | 23 | 1021 | 10 | S/SO 13 | |
| Oggi h: 10:53 | Sereno | 21 | 5 | 35 | 1021 | 10 | N 7.4 | |
| Oggi h: 09:53 | Sereno | 19 | 6 | 42 | 1020 | 10 | O 13 | |
| Oggi h: 08:53 | Sereno | 17 | 4 | 41 | 1020 | 10 | SO 11.1 | |
| Oggi h: 07:53 | Sereno | 14 | 3 | 47 | 1020 | 10 | N 7.4 | |
| Oggi h: 06:53 | Sereno | 8 | 4 | 75 | 1020 | 10 | N 5.5 | |
| Oggi h: 05:53 | Sereno | 7 | 4 | 81 | 1019 | 10 | N 5.5 | |
| Oggi h: 04:53 | Sereno | 8 | 6 | 87 | 1019 | 10 | N 0 | |
| Oggi h: 03:53 | Sereno | 8 | 6 | 87 | 1019 | 10 | N/NO 7.4 | |
| Oggi h: 02:53 | Sereno | 10 | 6 | 76 | 1018 | 10 | N 0 | |
| Oggi h: 01:53 | Sereno | 11 | 6 | 71 | 1019 | 10 | N 0 | |
| Oggi h: 00:53 | Sereno | 12 | 7 | 71 | 1019 | 10 | N 0 | |
| Ieri h: 23:53 | Sereno | 13 | 6 | 62 | 1019 | 10 | N 0 | |
| Ieri h: 22:53 | Sereno | 16 | 5 | 47 | 1018 | 10 | N 0 | |
| Ieri h: 21:53 | Sereno | 17 | 5 | 45 | 1018 | 10 | N 0 | |
| Ieri h: 20:53 | Sereno | 18 | 5 | 42 | 1018 | 10 | N 5.5 | |
| Ieri h: 19:53 | Sereno | 19 | 5 | 39 | 1017 | 10 | N 0 | |
| Ieri h: 18:53 | Sereno | 22 | 6 | 35 | 1016 | 10 | O 13 | |
| Ieri h: 17:53 | Sereno | 23 | 5 | 31 | 1016 | 10 | O 18.5 | |
| Ieri h: 16:53 | Poco Nuvoloso | 25 | 5 | 27 | 1015 | 10 | O/SO 16.7 | |
| Ieri h: 15:53 | Sereno | 26 | 5 | 25 | 1015 | 10 | O 20.3 | |
| Ieri h: 14:53 | Sereno | 24 | 7 | 33 | 1015 | 10 | O/SO 20.3 | |
| Ieri h: 13:53 | Sereno | 24 | 8 | 35 | 1015 | 10 | O 20.3 | |
| Ieri h: 12:53 | Sereno | 25 | 8 | 33 | 1016 | 10 | O 14.8 | |



